createdAt,value
2023-04-07T00:00:33.033Z,3.04
2023-04-07T00:03:02.743Z,2.85
2023-04-07T00:05:31.272Z,3.03
2023-04-07T00:08:00.044Z,2.96
2023-04-07T00:10:28.538Z,3.03
2023-04-07T00:12:58.410Z,2.60
2023-04-07T00:15:26.861Z,2.32
2023-04-07T00:17:55.437Z,2.55
2023-04-07T00:20:24.304Z,2.37
2023-04-07T00:22:52.812Z,2.32
2023-04-07T00:25:21.340Z,2.27
2023-04-07T00:27:50.433Z,2.26
2023-04-07T00:30:20.560Z,2.16
2023-04-07T00:32:49.262Z,2.20
2023-04-07T00:35:18.016Z,2.42
2023-04-07T00:37:46.465Z,2.24
2023-04-07T00:40:15.132Z,2.27
2023-04-07T00:42:43.651Z,2.40
2023-04-07T00:45:12.919Z,2.10
2023-04-07T00:47:42.930Z,2.16
2023-04-07T00:50:12.244Z,2.43
2023-04-07T00:52:41.872Z,2.22
2023-04-07T00:55:11.096Z,2.40
2023-04-07T00:57:39.582Z,2.27
2023-04-07T01:00:09.956Z,2.25
2023-04-07T01:02:47.970Z,2.32
2023-04-07T01:05:22.162Z,2.67
2023-04-07T01:08:00.544Z,2.75
2023-04-07T01:10:43.905Z,2.90
2023-04-07T01:13:24.242Z,2.61
2023-04-07T01:15:57.460Z,2.27
2023-04-07T01:18:33.619Z,2.30
2023-04-07T01:21:12.809Z,2.20
2023-04-07T01:24:01.043Z,2.69
2023-04-07T01:26:31.635Z,2.11
2023-04-07T01:29:35.756Z,2.54
2023-04-07T01:32:08.403Z,2.20
2023-04-07T01:34:38.608Z,2.24
2023-04-07T01:37:09.206Z,2.16
2023-04-07T01:39:40.217Z,2.23
2023-04-07T01:42:09.420Z,2.24
2023-04-07T01:44:39.896Z,2.36
2023-04-07T01:47:08.556Z,2.55
2023-04-07T01:49:39.656Z,2.54
2023-04-07T01:52:08.773Z,2.48
2023-04-07T01:54:38.127Z,2.40
2023-04-07T01:57:06.646Z,2.59
2023-04-07T01:59:35.171Z,2.64
2023-04-07T02:02:05.356Z,2.81
2023-04-07T02:04:40.196Z,2.42
2023-04-07T02:07:16.017Z,2.35
2023-04-07T02:09:46.470Z,2.38
2023-04-07T02:12:17.226Z,2.36
2023-04-07T02:14:46.243Z,2.38
2023-04-07T02:17:17.597Z,2.51
2023-04-07T02:19:48.000Z,2.61
2023-04-07T02:22:17.736Z,2.74
2023-04-07T02:24:46.389Z,2.83
2023-04-07T02:27:14.877Z,3.00
2023-04-07T02:29:43.567Z,2.83
2023-04-07T02:32:12.019Z,2.72
2023-04-07T02:34:42.311Z,2.84
2023-04-07T02:37:10.991Z,3.07
2023-04-07T02:39:39.487Z,2.96
2023-04-07T02:42:07.978Z,2.75
2023-04-07T02:44:36.411Z,2.95
2023-04-07T02:47:04.979Z,3.05
2023-04-07T02:49:33.413Z,2.85
2023-04-07T02:52:03.236Z,2.96
2023-04-07T02:54:31.700Z,2.94
2023-04-07T02:57:01.254Z,2.89
2023-04-07T02:59:29.728Z,2.88
2023-04-07T03:01:58.387Z,2.75
2023-04-07T03:04:27.421Z,2.71
2023-04-07T03:06:56.794Z,2.73
2023-04-07T03:09:26.749Z,2.87
2023-04-07T03:11:55.834Z,2.68
2023-04-07T03:14:24.314Z,2.52
2023-04-07T03:16:52.826Z,2.66
2023-04-07T03:19:21.461Z,2.64
2023-04-07T03:21:49.929Z,2.50
2023-04-07T03:24:18.584Z,2.30
2023-04-07T03:26:48.670Z,1.82
2023-04-07T03:29:17.111Z,2.06
2023-04-07T03:31:45.677Z,2.00
2023-04-07T03:34:14.618Z,2.29
2023-04-07T03:36:43.110Z,2.12
2023-04-07T03:39:11.644Z,1.64
2023-04-07T03:41:40.190Z,2.13
2023-04-07T03:44:10.120Z,1.74
2023-04-07T03:46:38.673Z,1.53
2023-04-07T03:49:07.213Z,1.38
2023-04-07T03:51:35.686Z,1.53
2023-04-07T03:54:04.998Z,1.61
2023-04-07T03:56:33.556Z,1.58
2023-04-07T03:59:02.029Z,1.74
2023-04-07T04:01:32.145Z,1.72
2023-04-07T04:04:01.055Z,1.74
2023-04-07T04:06:29.689Z,1.66
2023-04-07T04:08:58.138Z,1.72
2023-04-07T04:11:27.591Z,1.76
2023-04-07T04:13:56.538Z,1.36
2023-04-07T04:16:25.127Z,1.14
2023-04-07T04:18:55.278Z,1.13
2023-04-07T04:21:23.726Z,1.11
2023-04-07T04:23:52.343Z,1.13
2023-04-07T04:26:21.253Z,1.23
2023-04-07T04:28:49.714Z,1.02
2023-04-07T04:31:18.172Z,0.96
2023-04-07T04:33:46.655Z,1.05
2023-04-07T04:36:16.530Z,1.06
2023-04-07T04:38:45.197Z,1.17
2023-04-07T04:41:13.647Z,1.29
2023-04-07T04:43:42.517Z,1.17
2023-04-07T04:46:11.274Z,1.06
2023-04-07T04:48:39.771Z,1.05
2023-04-07T04:51:09.403Z,1.19
2023-04-07T04:53:39.248Z,1.38
2023-04-07T04:56:08.803Z,1.47
2023-04-07T04:58:37.801Z,1.65
2023-04-07T05:01:06.631Z,1.61
2023-04-07T05:03:35.283Z,1.67
2023-04-07T05:06:03.917Z,1.39
2023-04-07T05:08:32.489Z,1.51
2023-04-07T05:11:02.310Z,1.55
2023-04-07T05:13:31.421Z,1.45
2023-04-07T05:16:00.044Z,1.55
2023-04-07T05:18:28.531Z,1.49
2023-04-07T05:20:57.179Z,1.56
2023-04-07T05:23:26.551Z,1.51
2023-04-07T05:25:55.080Z,1.37
2023-04-07T05:28:25.370Z,1.49
2023-04-07T05:30:54.099Z,1.51
2023-04-07T05:33:22.794Z,1.56
2023-04-07T05:35:51.379Z,1.72
2023-04-07T05:38:19.896Z,1.68
2023-04-07T05:40:48.376Z,1.91
2023-04-07T05:43:16.826Z,2.09
2023-04-07T05:45:46.703Z,2.08
2023-04-07T05:48:15.368Z,2.09
2023-04-07T05:50:44.182Z,2.03
2023-04-07T05:53:12.668Z,2.10
2023-04-07T05:55:44.176Z,2.19
2023-04-07T05:58:12.696Z,2.21
2023-04-07T06:00:42.841Z,2.57
2023-04-07T06:03:12.802Z,2.49
2023-04-07T06:05:43.821Z,2.72
2023-04-07T06:08:12.380Z,2.72
2023-04-07T06:10:41.874Z,2.84
2023-04-07T06:13:10.315Z,2.92
2023-04-07T06:15:39.532Z,2.93
2023-04-07T06:18:08.272Z,2.77
2023-04-07T06:20:38.244Z,2.84
2023-04-07T06:23:06.791Z,2.81
2023-04-07T06:25:35.259Z,2.52
2023-04-07T06:28:04.023Z,2.79
2023-04-07T06:30:32.499Z,2.86
2023-04-07T06:33:00.958Z,2.88
2023-04-07T06:35:29.476Z,2.99
2023-04-07T06:38:00.140Z,3.04
2023-04-07T06:40:28.582Z,3.06
2023-04-07T06:42:57.321Z,3.21
2023-04-07T06:45:26.026Z,3.31
2023-04-07T06:47:54.541Z,3.32
2023-04-07T06:50:23.055Z,3.41
2023-04-07T06:52:51.759Z,3.46
2023-04-07T06:55:21.854Z,3.44
2023-04-07T06:57:52.794Z,3.88
2023-04-07T07:00:23.018Z,3.90
2023-04-07T07:02:51.985Z,4.09
2023-04-07T07:05:20.572Z,3.99
2023-04-07T07:07:49.007Z,3.88
2023-04-07T07:10:17.466Z,4.07
2023-04-07T07:12:47.401Z,4.13
2023-04-07T07:15:16.112Z,4.32
2023-04-07T07:17:45.507Z,4.50
2023-04-07T07:20:14.374Z,4.65
2023-04-07T07:22:42.979Z,4.89
2023-04-07T07:25:11.966Z,5.05
2023-04-07T07:27:40.426Z,4.64
2023-04-07T07:30:11.579Z,5.03
2023-04-07T07:32:40.056Z,4.98
2023-04-07T07:35:09.152Z,4.87
2023-04-07T07:37:37.871Z,5.08
2023-04-07T07:40:07.318Z,5.00
2023-04-07T07:42:35.871Z,4.88
2023-04-07T07:45:05.039Z,4.59
2023-04-07T07:47:37.762Z,5.13
2023-04-07T07:50:07.407Z,5.22
2023-04-07T07:52:35.848Z,5.22
2023-04-07T07:55:04.920Z,5.28
2023-04-07T07:57:33.365Z,5.33
2023-04-07T08:00:02.453Z,5.64
2023-04-07T08:02:32.863Z,5.73
2023-04-07T08:05:02.822Z,6.16
2023-04-07T08:07:31.764Z,6.85
2023-04-07T08:10:00.247Z,7.36
2023-04-07T08:12:28.796Z,7.01
2023-04-07T08:14:57.281Z,7.25
2023-04-07T08:17:25.921Z,7.30
2023-04-07T08:19:54.432Z,6.92
2023-04-07T08:22:24.261Z,6.91
2023-04-07T08:24:52.700Z,7.16
2023-04-07T08:27:21.612Z,6.88
2023-04-07T08:30:01.102Z,6.97
2023-04-07T08:32:37.420Z,6.90
2023-04-07T08:35:06.745Z,6.96
2023-04-07T08:37:37.208Z,6.92
2023-04-07T08:40:07.402Z,6.85
2023-04-07T08:42:36.996Z,6.73
2023-04-07T08:45:08.372Z,7.04
2023-04-07T08:47:38.488Z,7.02
2023-04-07T08:50:10.735Z,6.95
2023-04-07T08:52:46.225Z,6.85
2023-04-07T08:55:14.852Z,6.63
2023-04-07T08:57:43.943Z,6.84
2023-04-07T09:00:14.583Z,6.81
2023-04-07T09:02:45.679Z,6.79
2023-04-07T09:05:15.589Z,6.70
2023-04-07T09:07:45.757Z,6.62
2023-04-07T09:10:14.281Z,6.73
2023-04-07T09:12:43.547Z,6.76
2023-04-07T09:15:12.388Z,6.65
2023-04-07T09:17:41.316Z,6.40
2023-04-07T09:20:11.253Z,6.24
2023-04-07T09:22:42.519Z,6.18
2023-04-07T09:25:15.557Z,6.13
2023-04-07T09:27:57.050Z,6.07
2023-04-07T09:30:26.002Z,5.88
2023-04-07T09:32:54.601Z,5.75
2023-04-07T09:35:24.942Z,5.72
2023-04-07T09:38:05.244Z,5.71
2023-04-07T09:40:36.846Z,5.63
2023-04-07T09:43:07.775Z,5.55
2023-04-07T09:45:37.678Z,5.31
2023-04-07T09:48:09.905Z,5.28
2023-04-07T09:50:45.702Z,5.29
2023-04-07T09:53:14.165Z,5.14
2023-04-07T09:55:45.107Z,5.17
2023-04-07T09:58:15.583Z,5.18
2023-04-07T10:00:44.958Z,5.12
2023-04-07T10:03:13.783Z,5.08
2023-04-07T10:05:42.597Z,5.22
2023-04-07T10:08:12.242Z,5.23
2023-04-07T10:10:45.181Z,5.29
2023-04-07T10:13:14.208Z,5.28
2023-04-07T10:15:42.859Z,5.19
2023-04-07T10:18:11.877Z,5.33
2023-04-07T10:20:42.657Z,5.57
2023-04-07T10:23:20.665Z,5.62
2023-04-07T10:25:54.312Z,5.71
2023-04-07T10:28:25.524Z,5.20
2023-04-07T10:30:54.425Z,5.53
2023-04-07T10:33:48.999Z,5.62
2023-04-07T10:36:20.416Z,5.48
2023-04-07T10:39:25.058Z,5.44
2023-04-07T10:41:54.898Z,5.70
2023-04-07T10:45:00.915Z,5.75
2023-04-07T10:47:29.749Z,5.72
2023-04-07T10:50:20.141Z,5.81
2023-04-07T10:52:50.057Z,5.84
2023-04-07T10:55:37.605Z,6.14
2023-04-07T10:58:24.920Z,6.32
2023-04-07T11:01:21.936Z,6.25
2023-04-07T11:04:01.505Z,6.21
2023-04-07T11:06:30.358Z,6.13
2023-04-07T11:08:58.806Z,6.19
2023-04-07T11:11:43.549Z,6.19
2023-04-07T11:14:13.449Z,6.17
2023-04-07T11:16:45.922Z,6.11
2023-04-07T11:19:14.431Z,6.08
2023-04-07T11:21:42.903Z,6.24
2023-04-07T11:24:11.989Z,6.37
2023-04-07T11:26:42.073Z,6.46
2023-04-07T11:29:13.744Z,6.70
2023-04-07T11:31:42.292Z,6.23
2023-04-07T11:34:11.228Z,6.41
2023-04-07T11:36:42.324Z,6.19
2023-04-07T11:39:21.605Z,6.34
2023-04-07T11:41:52.077Z,6.37
2023-04-07T11:44:22.200Z,6.47
2023-04-07T11:46:58.835Z,6.47
2023-04-07T11:49:32.498Z,6.35
2023-04-07T11:52:03.338Z,6.59
2023-04-07T11:54:42.682Z,6.78
2023-04-07T11:57:13.128Z,6.67
2023-04-07T11:59:43.526Z,6.70
2023-04-07T12:02:12.122Z,6.85
2023-04-07T12:04:57.602Z,6.87
2023-04-07T12:07:28.331Z,7.10
2023-04-07T12:12:47.576Z,7.13
2023-04-07T12:15:17.627Z,7.21
2023-04-07T12:17:47.918Z,7.30
2023-04-07T12:20:17.541Z,7.47
2023-04-07T12:22:46.319Z,7.33
2023-04-07T12:25:14.808Z,7.25
2023-04-07T12:27:43.903Z,7.39
2023-04-07T12:30:14.063Z,7.63
2023-04-07T12:32:43.927Z,7.42
2023-04-07T12:38:01.673Z,7.58
2023-04-07T12:40:31.591Z,7.46
2023-04-07T12:43:00.075Z,7.44
2023-04-07T12:45:30.641Z,7.66
2023-04-07T12:48:01.078Z,7.77
2023-04-07T12:50:30.519Z,7.24
2023-04-07T12:53:01.701Z,7.27
2023-04-07T12:55:30.463Z,7.40
2023-04-07T12:57:59.103Z,7.55
2023-04-07T13:00:27.559Z,7.29
2023-04-07T13:02:56.979Z,6.80
2023-04-07T13:05:27.491Z,6.42
2023-04-07T13:07:56.641Z,6.28
2023-04-07T13:10:25.091Z,6.11
2023-04-07T13:12:53.517Z,6.22
2023-04-07T13:15:22.327Z,6.27
2023-04-07T13:17:50.819Z,6.16
2023-04-07T13:20:20.756Z,6.14
2023-04-07T13:23:02.724Z,6.22
2023-04-07T13:25:34.554Z,5.82
2023-04-07T13:28:03.104Z,6.31
2023-04-07T13:30:31.817Z,6.20
2023-04-07T13:33:00.638Z,6.11
2023-04-07T13:35:30.427Z,6.27
2023-04-07T13:38:00.316Z,6.15
2023-04-07T13:40:28.728Z,5.92
2023-04-07T13:42:57.408Z,5.90
2023-04-07T13:45:27.549Z,5.86
2023-04-07T13:47:56.969Z,5.70
2023-04-07T13:50:26.275Z,5.47
2023-04-07T13:52:54.716Z,5.58
2023-04-07T13:55:24.514Z,5.60
2023-04-07T13:57:52.955Z,5.80
2023-04-07T14:00:22.031Z,5.79
2023-04-07T14:02:50.578Z,5.62
2023-04-07T14:05:19.254Z,5.91
2023-04-07T14:07:48.172Z,5.88
2023-04-07T14:10:16.840Z,5.97
2023-04-07T14:12:46.682Z,5.60
2023-04-07T14:15:16.430Z,5.96
2023-04-07T14:17:46.236Z,6.25
2023-04-07T14:20:14.716Z,6.19
2023-04-07T14:22:43.340Z,6.18
2023-04-07T14:25:12.661Z,6.10
2023-04-07T14:27:41.543Z,6.11
2023-04-07T14:30:13.386Z,6.44
2023-04-07T14:32:42.077Z,6.19
2023-04-07T14:35:11.355Z,5.97
2023-04-07T14:37:40.038Z,6.02
2023-04-07T14:40:10.233Z,6.14
2023-04-07T14:42:39.202Z,6.05
2023-04-07T14:45:10.538Z,6.24
2023-04-07T14:47:39.027Z,6.20
2023-04-07T14:50:08.723Z,6.11
2023-04-07T14:52:37.195Z,6.16
2023-04-07T14:55:06.806Z,6.15
2023-04-07T14:57:35.465Z,6.14
2023-04-07T15:00:07.429Z,6.17
2023-04-07T15:02:37.906Z,5.93
2023-04-07T15:05:07.602Z,5.83
2023-04-07T15:07:37.678Z,5.84
2023-04-07T15:10:07.110Z,6.14
2023-04-07T15:12:35.620Z,5.95
2023-04-07T15:15:04.217Z,5.94
2023-04-07T15:17:42.971Z,5.95
2023-04-07T15:20:14.290Z,5.91
2023-04-07T15:22:42.953Z,5.85
2023-04-07T15:25:11.450Z,5.79
2023-04-07T15:27:40.037Z,5.78
2023-04-07T15:30:09.994Z,5.92
2023-04-07T15:32:38.774Z,5.73
2023-04-07T15:35:10.036Z,5.69
2023-04-07T15:37:39.843Z,5.74
2023-04-07T15:40:10.105Z,5.78
2023-04-07T15:42:41.764Z,5.69
2023-04-07T15:45:12.041Z,5.56
2023-04-07T15:47:40.706Z,5.43
2023-04-07T15:50:11.123Z,5.33
2023-04-07T15:52:40.961Z,5.20
2023-04-07T15:55:10.865Z,5.21
2023-04-07T15:57:39.307Z,5.38
2023-04-07T16:00:10.189Z,5.28
2023-04-07T16:02:39.355Z,5.19
2023-04-07T16:05:08.376Z,5.29
2023-04-07T16:07:36.959Z,5.17
2023-04-07T16:10:08.766Z,5.31
2023-04-07T16:12:38.179Z,5.29
2023-04-07T16:15:09.863Z,5.37
2023-04-07T16:17:40.442Z,5.22
2023-04-07T16:20:14.552Z,5.15
2023-04-07T16:22:43.402Z,5.18
2023-04-07T16:25:13.828Z,5.02
2023-04-07T16:27:42.529Z,4.89
2023-04-07T16:30:13.934Z,5.04
2023-04-07T16:32:43.732Z,5.03
2023-04-07T16:35:12.576Z,4.64
2023-04-07T16:37:43.334Z,4.34
2023-04-07T16:40:14.015Z,4.48
2023-04-07T16:42:42.469Z,4.01
2023-04-07T16:45:12.000Z,4.00
2023-04-07T16:47:44.313Z,4.17
2023-04-07T16:50:14.069Z,3.85
2023-04-07T16:52:45.867Z,3.85
2023-04-07T16:55:15.768Z,3.63
2023-04-07T16:57:44.409Z,3.90
2023-04-07T17:00:14.547Z,3.76
2023-04-07T17:02:43.117Z,3.49
2023-04-07T17:05:11.825Z,3.86
2023-04-07T17:07:40.265Z,3.82
2023-04-07T17:10:10.244Z,3.54
2023-04-07T17:12:40.056Z,3.42
2023-04-07T17:15:09.576Z,3.31
2023-04-07T17:17:39.296Z,3.27
2023-04-07T17:20:09.512Z,3.33
2023-04-07T17:22:37.985Z,3.51
2023-04-07T17:25:07.885Z,3.39
2023-04-07T17:27:36.547Z,3.42
2023-04-07T17:30:09.616Z,3.39
2023-04-07T17:32:38.126Z,3.47
2023-04-07T17:35:07.616Z,3.42
2023-04-07T17:37:36.835Z,3.65
2023-04-07T17:40:06.014Z,3.39
2023-04-07T17:42:34.478Z,3.56
2023-04-07T17:45:03.332Z,3.47
2023-04-07T17:47:33.254Z,3.22
2023-04-07T17:50:02.026Z,3.28
2023-04-07T17:52:30.781Z,3.24
2023-04-07T17:54:59.388Z,3.18
2023-04-07T17:57:27.885Z,3.24
2023-04-07T17:59:56.311Z,3.50
2023-04-07T18:02:25.160Z,3.18
2023-04-07T18:04:57.631Z,3.03
2023-04-07T18:07:26.448Z,3.18
2023-04-07T18:09:54.981Z,3.13
2023-04-07T18:12:23.630Z,3.17
2023-04-07T18:14:52.124Z,3.34
2023-04-07T18:17:20.679Z,3.25
2023-04-07T18:19:49.707Z,3.20
2023-04-07T18:22:19.507Z,3.06
2023-04-07T18:24:47.976Z,3.27
2023-04-07T18:27:16.508Z,3.18
2023-04-07T18:29:45.166Z,3.25
2023-04-07T18:32:13.604Z,3.06
2023-04-07T18:34:42.053Z,3.03
2023-04-07T18:37:10.701Z,3.21
2023-04-07T18:39:40.625Z,3.21
2023-04-07T18:42:09.101Z,3.32
2023-04-07T18:44:37.603Z,3.32
2023-04-07T18:47:06.172Z,3.32
2023-04-07T18:49:34.905Z,2.96
2023-04-07T18:52:03.485Z,3.14
2023-04-07T18:54:31.943Z,3.18
2023-04-07T18:57:02.583Z,3.06
2023-04-07T18:59:31.508Z,2.84
2023-04-07T19:02:00.086Z,2.77
2023-04-07T19:04:28.794Z,2.82
2023-04-07T19:06:57.625Z,3.01
2023-04-07T19:09:26.856Z,3.19
2023-04-07T19:11:55.303Z,3.02
2023-04-07T19:14:25.153Z,3.20
2023-04-07T19:16:53.723Z,3.11
2023-04-07T19:19:22.173Z,3.13
2023-04-07T19:21:51.823Z,3.22
2023-04-07T19:24:20.334Z,3.22
2023-04-07T19:26:48.807Z,2.84
2023-04-07T19:29:17.477Z,2.83
2023-04-07T19:31:48.016Z,2.90
2023-04-07T19:34:16.481Z,2.83
2023-04-07T19:36:44.945Z,2.97
2023-04-07T19:39:13.609Z,2.80
2023-04-07T19:41:42.066Z,2.81
2023-04-07T19:44:10.511Z,3.16
2023-04-07T19:46:38.964Z,2.97
2023-04-07T19:49:08.871Z,2.89
2023-04-07T19:51:37.394Z,2.96
2023-04-07T19:54:05.818Z,2.98
2023-04-07T19:56:34.270Z,3.35
2023-04-07T19:59:02.682Z,3.14
2023-04-07T20:01:31.434Z,3.12
2023-04-07T20:04:00.080Z,3.29
2023-04-07T20:06:31.121Z,3.16
2023-04-07T20:09:00.992Z,3.13
2023-04-07T20:11:29.539Z,3.21
2023-04-07T20:13:57.978Z,3.13
2023-04-07T20:16:27.341Z,3.21
2023-04-07T20:18:56.449Z,3.12
2023-04-07T20:21:25.895Z,3.17
2023-04-07T20:23:55.964Z,3.14
2023-04-07T20:26:24.392Z,3.08
2023-04-07T20:28:52.903Z,3.06
2023-04-07T20:31:21.593Z,3.05
2023-04-07T20:33:50.341Z,2.90
2023-04-07T20:36:19.078Z,3.20
2023-04-07T20:38:49.330Z,3.24
2023-04-07T20:41:19.707Z,3.29
2023-04-07T20:43:48.210Z,3.26
2023-04-07T20:46:16.748Z,3.22
2023-04-07T20:48:45.233Z,2.87
2023-04-07T20:51:13.748Z,2.89
2023-04-07T20:53:42.335Z,2.73
2023-04-07T20:56:11.563Z,2.78
2023-04-07T20:58:41.799Z,2.95
2023-04-07T21:01:10.417Z,3.16
2023-04-07T21:03:39.343Z,2.90
2023-04-07T21:06:08.714Z,2.71
2023-04-07T21:08:37.168Z,2.71
2023-04-07T21:11:05.712Z,2.77
2023-04-07T21:13:34.208Z,2.89
2023-04-07T21:16:05.711Z,2.90
2023-04-07T21:18:34.429Z,2.84
2023-04-07T21:21:03.506Z,2.80
2023-04-07T21:23:32.119Z,2.87
2023-04-07T21:26:04.106Z,2.86
2023-04-07T21:28:32.607Z,2.76
2023-04-07T21:31:01.412Z,2.75
2023-04-07T21:33:31.280Z,2.80
2023-04-07T21:36:01.760Z,2.80
2023-04-07T21:38:31.172Z,2.97
2023-04-07T21:40:59.719Z,2.77
2023-04-07T21:43:29.504Z,2.75
2023-04-07T21:45:58.057Z,2.96
2023-04-07T21:48:26.728Z,2.79
2023-04-07T21:50:56.600Z,2.68
2023-04-07T21:53:25.088Z,2.77
2023-04-07T21:55:54.352Z,3.02
2023-04-07T21:58:23.525Z,2.74
2023-04-07T22:00:51.982Z,2.66
2023-04-07T22:03:20.572Z,2.97
2023-04-07T22:05:49.355Z,2.99
2023-04-07T22:08:19.605Z,3.00
2023-04-07T22:10:48.061Z,2.63
2023-04-07T22:13:16.484Z,2.49
2023-04-07T22:15:45.059Z,2.39
2023-04-07T22:18:13.748Z,2.58
2023-04-07T22:20:42.236Z,2.65
2023-04-07T22:23:11.066Z,2.71
2023-04-07T22:25:40.888Z,2.68
2023-04-07T22:28:09.357Z,2.75
2023-04-07T22:30:37.801Z,2.76
2023-04-07T22:33:07.200Z,2.56
2023-04-07T22:35:35.820Z,2.66
2023-04-07T22:38:04.318Z,2.67
2023-04-07T22:40:33.285Z,2.55
2023-04-07T22:43:03.437Z,2.63
2023-04-07T22:45:32.097Z,2.77
2023-04-07T22:48:00.627Z,2.95
2023-04-07T22:50:29.235Z,3.03
2023-04-07T22:52:57.680Z,3.07
2023-04-07T22:55:26.183Z,2.95
2023-04-07T22:57:54.956Z,2.81
2023-04-07T23:00:24.866Z,2.84
2023-04-07T23:02:53.566Z,2.85
2023-04-07T23:05:22.168Z,2.78
2023-04-07T23:07:51.753Z,2.78
2023-04-07T23:10:20.560Z,2.96
2023-04-07T23:12:49.073Z,2.82
2023-04-07T23:15:17.781Z,2.71
2023-04-07T23:17:47.904Z,2.76
2023-04-07T23:20:16.657Z,2.77
2023-04-07T23:22:45.099Z,2.66
2023-04-07T23:25:13.548Z,2.98
2023-04-07T23:27:42.870Z,2.89
2023-04-07T23:30:12.731Z,2.92
2023-04-07T23:32:41.487Z,2.92
2023-04-07T23:35:12.159Z,2.85
2023-04-07T23:37:40.658Z,2.90
2023-04-07T23:40:11.327Z,2.66
2023-04-07T23:42:39.781Z,2.66
2023-04-07T23:45:09.500Z,2.82
2023-04-07T23:47:38.263Z,2.73
2023-04-07T23:50:08.845Z,2.88
2023-04-07T23:52:38.697Z,3.01
2023-04-07T23:55:08.233Z,2.85
2023-04-07T23:57:37.110Z,2.79
